Data for 07/05/2009

Time Sea-Level Adjusted Pressure Absolute Pressure Temperature Relative Humidity Dew Point   
(mb) (inHg) (mb) (inHg) (C) (F) (%) (C) (F)
00:05 1021 30.15 850 25.1 15.9 60.6 53 6.5 43.7
00:10 1021 30.15 850 25.1 15.7 60.3 54 6.5 43.7
00:15 1021 30.15 850 25.1 15.8 60.5 54 6.6 43.9
00:20 1021 30.15 850 25.1 15.7 60.2 55 6.7 44
00:25 1021 30.15 850 25.1 15.4 59.7 56 6.7 44
00:30 1021 30.15 850 25.1 15.2 59.3 56 6.7 44
00:35 1021 30.15 850 25.1 15.1 59.2 56 6.6 43.8
00:40 1021 30.15 850 25.1 15.2 59.3 56 6.6 43.9
00:45 1021 30.15 850 25.1 15.2 59.4 56 6.6 43.8
00:50 1021 30.15 850 25.1 15.3 59.5 56 6.6 43.9
00:55 1021 30.15 850 25.1 15.3 59.5 56 6.6 44
01:00 1021 30.15 850 25.1 15.3 59.5 56 6.7 44.1
01:05 1021 30.15 850 25.1 15.2 59.4 56 6.7 44
01:10 1021 30.15 850 25.1 15.1 59.2 57 6.7 44.1
01:15 1021 30.15 850 25.1 15.1 59.1 57 6.7 44
01:20 1021 30.15 850 25.1 15.1 59.2 57 6.8 44.2
01:25 1021 30.15 850 25.1 15.1 59.1 57 6.8 44.2
01:30 1021 30.15 850 25.1 15 58.9 58 6.9 44.5
01:35 1021 30.15 850 25.1 14.8 58.7 59 6.9 44.4
01:40 1021 30.15 850 25.1 14.6 58.3 60 7.1 44.8
01:45 1021 30.15 850 25.1 14.3 57.8 61 6.9 44.5
01:50 1021 30.15 850 25.1 14.3 57.8 61 7 44.6
01:55 1021 30.15 850 25.1 14.2 57.5 62 7 44.6
02:00 1021 30.15 850 25.1 14 57.2 63 7.1 44.7
02:05 1021 30.15 850 25.1 13.8 56.9 63 7 44.5
02:10 1021 30.15 850 25.1 13.8 56.8 63 7 44.6
02:15 1021 30.15 850 25.1 13.8 56.8 63 6.9 44.4
02:20 1021 30.15 850 25.1 13.9 57 63 7 44.6
02:25 1021 30.15 850 25.1 13.9 57 63 7 44.7
02:30 1021 30.15 850 25.1 13.8 56.8 63 7 44.6
02:35 1021 30.15 850 25.1 13.5 56.4 64 7 44.6
02:40 1021 30.15 850 25.1 13.5 56.2 64 6.9 44.4
02:45 1021 30.15 850 25.1 13.3 56 65 7 44.6
02:50 1021 30.15 850 25.1 13.3 56 65 6.9 44.3
02:55 1021 30.15 850 25.1 13.5 56.2 64 6.8 44.2
03:00 1021 30.15 850 25.1 13.7 56.6 62 6.7 44.1
03:05 1021 30.15 850 25.1 13.8 56.8 63 6.9 44.5
03:10 1021 30.15 850 25.1 13.7 56.6 63 6.8 44.2
03:15 1021 30.15 850 25.1 13.5 56.3 64 6.8 44.3
03:20 1021 30.15 850 25.1 13.3 55.9 65 6.9 44.4
03:25 1021 30.15 850 25.1 13 55.5 65 6.6 43.9
03:30 1021 30.15 850 25.1 12.9 55.3 66 6.7 44
03:35 1021 30.15 850 25.1 12.8 55.1 66 6.6 43.9
03:40 1021 30.15 850 25.1 13 55.3 65 6.6 43.8
03:45 1021 30.15 850 25.1 13.2 55.8 63 6.3 43.3
03:50 1021 30.15 850 25.1 13.7 56.6 62 6.6 43.9
03:55 1021 30.15 850 25.1 13.6 56.5 63 6.8 44.3
04:00 1021 30.15 850 25.1 13.5 56.3 63 6.6 43.8
04:05 1021 30.15 850 25.1 13.7 56.6 62 6.6 43.8
04:10 1021 30.15 850 25.1 13.6 56.6 63 6.7 44.1
04:15 1021 30.15 850 25.1 13.3 56 64 6.8 44.2
04:20 1021 30.15 850 25.1 13.1 55.6 65 6.7 44.1
04:25 1021 30.15 850 25.1 13 55.3 64 6.4 43.5
04:30 1021 30.15 850 25.1 13.1 55.6 64 6.6 43.9
04:35 1021 30.15 850 25.1 13.3 55.9 63 6.4 43.6
04:40 1021 30.15 850 25.1 13.4 56.2 63 6.6 43.9
04:45 1021 30.15 850 25.1 13.2 55.8 64 6.6 43.9
04:50 1021 30.15 850 25.1 13.2 55.8 64 6.7 44
04:55 1021 30.15 850 25.1 13.1 55.5 65 6.6 43.9
05:00 1021 30.15 850 25.1 12.8 55.1 66 6.8 44.2
05:05 1021 30.15 850 25.1 12.4 54.3 68 6.6 43.9
05:10 1021 30.15 850 25.1 12 53.6 69 6.6 43.9
05:15 1021 30.15 850 25.1 11.7 53.1 70 6.4 43.5
05:20 1021 30.15 850 25.1 11.8 53.2 69 6.3 43.4
05:25 1021 30.15 850 25.1 11.8 53.3 69 6.4 43.5
05:30 1021 30.15 850 25.1 11.8 53.3 69 6.4 43.5
05:35 1021 30.15 850 25.1 11.9 53.3 69 6.4 43.5
05:40 1021 30.15 850 25.1 11.9 53.5 68 6.3 43.4
05:45 1021 30.15 850 25.1 12.3 54.2 66 6.2 43.2
05:50 1021 30.15 850 25.1 12.7 54.8 65 6.4 43.4
05:55 1021 30.15 850 25.1 12.8 55.1 64 6.3 43.4
06:00 1021 30.15 851 25.13 13 55.4 63 6.3 43.3
06:05 1021 30.15 851 25.13 13.2 55.7 64 6.5 43.8
06:10 1021 30.15 851 25.13 12.9 55.3 65 6.5 43.7
06:15 1021 30.15 851 25.13 12.9 55.3 64 6.3 43.3
06:20 1021 30.15 851 25.13 13.1 55.6 64 6.4 43.6
06:25 1021 30.15 851 25.13 13.1 55.7 63 6.2 43.2
06:30 1021 30.15 851 25.13 13.3 55.9 62 6.3 43.4
06:35 1021 30.15 851 25.13 13.3 55.9 63 6.4 43.6
06:40 1021 30.15 851 25.13 13.4 56.2 61 6.2 43.2
06:45 1022 30.18 851 25.13 13.8 56.8 59 6 42.8
06:50 1022 30.18 851 25.13 14.1 57.4 61 6.6 44
06:55 1022 30.18 851 25.13 13.9 56.9 61 6.6 43.8
07:00 1021 30.15 851 25.13 13.9 57.1 61 6.7 44.1
07:05 1021 30.15 851 25.13 14 57.2 62 6.9 44.4
07:10 1021 30.15 851 25.13 14.1 57.3 61 6.7 44.1
07:15 1021 30.15 851 25.13 14.2 57.5 62 7 44.5
07:20 1021 30.15 851 25.13 14.3 57.7 61 6.9 44.5
07:25 1021 30.15 850 25.1 14.4 57.9 60 6.9 44.4
07:30 1021 30.15 850 25.1 14.6 58.3 60 7 44.6
07:35 1021 30.15 851 25.13 14.9 58.9 59 7 44.6
07:40 1021 30.15 850 25.1 15.3 59.5 58 7.1 44.8
07:45 1021 30.15 850 25.1 15.5 59.8 59 7.5 45.4
07:50 1021 30.15 850 25.1 15.6 60.1 57 7.3 45.2
07:55 1021 30.15 850 25.1 15.8 60.5 57 7.5 45.5
08:00 1021 30.15 851 25.13 16.2 61.2 57 7.8 46
08:05 1021 30.15 851 25.13 16.3 61.4 57 7.9 46.2
08:10 1021 30.15 851 25.13 16.2 61.2 57 7.8 46.1
08:15 1021 30.15 851 25.13 16.5 61.7 56 7.8 46.1
08:20 1021 30.15 851 25.13 16.7 62.1 57 8.2 46.7
08:25 1021 30.15 851 25.13 16.8 62.3 56 8.2 46.8
08:30 1022 30.18 851 25.13 16.8 62.3 56 8.1 46.7
08:35 1022 30.18 851 25.13 16.8 62.3 56 8.2 46.7
08:40 1022 30.18 851 25.13 16.8 62.3 57 8.4 47.2
08:45 1022 30.18 851 25.13 17.2 63 56 8.4 47
08:50 1022 30.18 851 25.13 17.5 63.4 55 8.4 47.1
08:55 1022 30.18 851 25.13 17.6 63.6 56 8.8 47.8
09:00 1022 30.18 851 25.13 17 62.6 59 9 48.2
09:05 1022 30.18 851 25.13 16.8 62.2 59 8.7 47.7
09:10 1022 30.18 851 25.13 17.4 63.3 55 8.5 47.3
09:15 1022 30.18 851 25.13 18.2 64.8 53 8.5 47.3
09:20 1022 30.18 851 25.13 19.2 66.5 48 8 46.4
09:25 1022 30.18 851 25.13 19.7 67.4 47 8.1 46.6
09:30 1022 30.18 851 25.13 19.9 67.8 47 8.3 47
09:35 1022 30.18 851 25.13 20.6 69 45 8.3 46.9
09:40 1022 30.18 851 25.13 20.3 68.5 47 8.9 48
09:45 1022 30.18 851 25.13 20.4 68.7 48 9 48.2
09:50 1022 30.18 851 25.13 20.7 69.3 44 8.3 47
09:55 1022 30.18 851 25.13 21.1 70 45 8.7 47.7
10:00 1022 30.18 851 25.13 20.9 69.7 44 8.5 47.4
10:05 1022 30.18 851 25.13 21.3 70.4 43 8.3 46.9
10:10 1021 30.15 851 25.13 21.5 70.7 44 8.9 48.1
10:15 1021 30.15 851 25.13 21.5 70.7 43 8.5 47.3
10:20 1021 30.15 851 25.13 22.2 71.9 40 8.2 46.7
10:25 1021 30.15 851 25.13 22.3 72.1 41 8.8 47.8
10:30 1021 30.15 851 25.13 22.5 72.6 40 8.3 47
10:35 1021 30.15 851 25.13 23.6 74.5 38 8.5 47.3
10:40 1021 30.15 851 25.13 24.5 76.1 37 9 48.3
10:45 1021 30.15 851 25.13 24.5 76 37 9.1 48.4
10:50 1021 30.15 850 25.1 24.1 75.4 36 8.4 47.1
10:55 1021 30.15 850 25.1 23.8 74.8 39 9.4 48.9
11:00 1021 30.15 850 25.1 23.8 74.8 36 8.2 46.8
11:05 1021 30.15 850 25.1 24.1 75.4 37 8.8 47.8
11:10 1021 30.15 850 25.1 23.1 73.5 41 9.1 48.4
11:15 1021 30.15 851 25.13 22.5 72.5 41 8.9 48.1
11:20 1021 30.15 850 25.1 23.1 73.5 40 8.9 48
11:25 1021 30.15 850 25.1 23.6 74.4 37 8.4 47.1
11:30 1021 30.15 850 25.1 24.9 76.8 34 8 46.4
11:35 1021 30.15 850 25.1 25.6 78.1 33 8.4 47.2
11:40 1021 30.15 850 25.1 25.1 77.2 35 9 48.2
11:45 1021 30.15 850 25.1 24.4 75.9 35 8.3 46.9
11:50 1021 30.15 850 25.1 24.8 76.7 34 8.2 46.8
11:55 1021 30.15 850 25.1 24.3 75.7 35 8.2 46.8
12:00 1021 30.15 850 25.1 25 76.9 33 7.6 45.8
12:05 1021 30.15 850 25.1 24.9 76.8 34 8.2 46.8
12:10 1021 30.15 850 25.1 24.5 76 32 6.8 44.2
12:15 1021 30.15 850 25.1 25.3 77.5 31 7.1 44.9
12:20 1021 30.15 850 25.1 26.6 79.8 27 6.5 43.7
12:25 1021 30.15 850 25.1 26.4 79.5 29 7.3 45.2
12:30 1021 30.15 850 25.1 26.3 79.3 30 7.6 45.7
12:35 1021 30.15 850 25.1 25.7 78.2 28 6.2 43.2
12:40 1021 30.15 850 25.1 26 78.8 29 7 44.7
12:45 1020 30.12 850 25.1 25.4 77.8 28 5.7 42.3
12:50 1020 30.12 850 25.1 25.5 77.9 27 5.3 41.5
12:55 1020 30.12 849 25.07 26.1 78.9 24 4.2 39.6
13:00 1020 30.12 849 25.07 26.2 79.1 25 5.2 41.3
13:05 1020 30.12 849 25.07 26.3 79.3 25 5.1 41.1
13:10 1020 30.12 849 25.07 27.1 80.8 23 4.7 40.5
13:15 1020 30.12 849 25.07 27.1 80.8 24 4.9 40.8
13:20 1020 30.12 849 25.07 27.3 81.2 23 4.6 40.3
13:25 1020 30.12 849 25.07 27.8 82 21 4.1 39.3
13:30 1020 30.12 849 25.07 27.5 81.4 21 3.7 38.6
13:35 1020 30.12 849 25.07 27.3 81.2 21 3.5 38.4
13:40 1020 30.12 849 25.07 26.4 79.6 23 3.9 39
13:45 1020 30.12 849 25.07 25.9 78.6 23 3.3 37.9
13:50 1020 30.12 849 25.07 25.9 78.5 23 3.4 38.1
13:55 1020 30.12 849 25.07 27 80.6 21 3.4 38.1
14:00 1020 30.12 849 25.07 27.4 81.3 21 3.7 38.7
14:05 1020 30.12 849 25.07 27.5 81.4 21 3.2 37.7
14:10 1020 30.12 849 25.07 28.4 83 20 3.7 38.7
14:15 1020 30.12 849 25.07 28.8 83.8 22 5 41.1
14:20 1019 30.09 849 25.07 27.7 81.9 22 4.4 39.9
14:25 1019 30.09 849 25.07 26.1 78.9 21 2.5 36.5
14:30 1019 30.09 849 25.07 25.7 78.2 24 3.7 38.6
14:35 1019 30.09 849 25.07 26.2 79.1 25 4.7 40.5
14:40 1019 30.09 849 25.07 25.7 78.2 25 4.2 39.6
14:45 1019 30.09 848 25.04 25.6 78.2 24 4.1 39.3
14:50 1019 30.09 848 25.04 25.8 78.4 24 3.8 38.8
14:55 1019 30.09 848 25.04 26.6 79.9 22 3.2 37.8
15:00 1019 30.09 848 25.04 26.2 79.1 23 3.8 38.8
15:05 1019 30.09 848 25.04 26.4 79.5 24 4.3 39.7
15:10 1019 30.09 848 25.04 26.8 80.2 20 2.5 36.5
15:15 1019 30.09 848 25.04 26.6 79.8 23 3.8 38.8
15:20 1019 30.09 848 25.04 26.2 79.1 20 2 35.7
15:25 1019 30.09 848 25.04 26.3 79.4 23 3.9 39.1
15:30 1019 30.09 848 25.04 25.9 78.6 22 2.8 37
15:35 1019 30.09 848 25.04 25.6 78 19 0.6 33.1
15:40 1019 30.09 848 25.04 25.9 78.6 17 -0.8 30.5
15:45 1019 30.09 848 25.04 26.3 79.3 18 0.4 32.8
15:50 1019 30.09 848 25.04 26.1 79.1 18 0 32
15:55 1019 30.09 848 25.04 25.6 78 28 6 42.8
16:00 1019 30.09 848 25.04 23.5 74.3 32 6.2 43.2
16:05 1019 30.09 848 25.04 22.4 72.3 34 6 42.9
16:10 1019 30.09 848 25.04 23.4 74.1 23 1 33.8
16:15 1019 30.09 848 25.04 24.1 75.3 22 1 33.8
16:20 1019 30.09 849 25.07 22.9 73.1 36 7.1 44.8
16:25 1019 30.09 849 25.07 22 71.5 30 3.8 38.8
16:30 1019 30.09 849 25.07 22.9 73.1 26 2.7 36.9
16:35 1019 30.09 848 25.04 23.3 73.9 26 2.8 37.1
16:40 1019 30.09 848 25.04 23.5 74.3 25 2.8 37
16:45 1019 30.09 848 25.04 23.4 74.1 26 3 37.5
16:50 1019 30.09 848 25.04 23.2 73.8 27 3.5 38.3
16:55 1019 30.09 849 25.07 23.1 73.6 28 3.7 38.6
17:00 1020 30.12 849 25.07 22.3 72.1 40 8.1 46.6
17:05 1020 30.12 849 25.07 21.2 70.2 43 8.4 47.1
17:10 1020 30.12 849 25.07 21.1 69.9 42 7.7 45.8
17:15 1020 30.12 849 25.07 21.3 70.3 37 6.3 43.4
17:20 1020 30.12 849 25.07 21.5 70.7 38 6.6 43.9
17:25 1020 30.12 849 25.07 21.6 70.8 38 6.7 44
17:30 1020 30.12 849 25.07 21.4 70.6 39 7 44.6
17:35 1020 30.12 849 25.07 21.5 70.7 39 7.2 44.9
17:40 1020 30.12 849 25.07 21.5 70.7 39 7 44.6
17:45 1020 30.12 849 25.07 21.6 70.9 36 6.1 43
17:50 1020 30.12 849 25.07 21.6 70.8 38 6.9 44.4
17:55 1020 30.12 849 25.07 21.5 70.7 37 6.3 43.4
18:00 1020 30.12 849 25.07 21.3 70.3 35 5.5 41.8
18:05 1019 30.09 849 25.07 21.3 70.4 35 5.3 41.5
18:10 1019 30.09 849 25.07 21.7 71 37 6.4 43.6
18:15 1019 30.09 849 25.07 21.8 71.2 37 6.7 44.1
18:20 1019 30.09 848 25.04 21.8 71.2 36 6.3 43.3
18:25 1019 30.09 848 25.04 21.7 71 36 6.3 43.3
18:30 1019 30.09 848 25.04 21.7 71 36 6 42.8
18:35 1019 30.09 848 25.04 21.9 71.5 35 6 42.8
18:40 1019 30.09 848 25.04 22.2 72 34 6 42.8
18:45 1019 30.09 848 25.04 22.7 72.8 33 5.6 42.1
18:50 1019 30.09 848 25.04 22.8 73 36 7.1 44.7
18:55 1019 30.09 848 25.04 22.5 72.6 35 6.7 44.1
19:00 1019 30.09 848 25.04 22.7 72.9 33 6.1 42.9
19:05 1019 30.09 848 25.04 22.8 73.1 34 6.5 43.8
19:10 1019 30.09 848 25.04 22.7 72.9 34 6.4 43.5
19:15 1019 30.09 848 25.04 22.7 72.9 35 6.8 44.2
19:20 1019 30.09 848 25.04 22.7 72.8 35 6.8 44.2
19:25 1019 30.09 848 25.04 22.5 72.5 36 6.8 44.2
19:30 1019 30.09 848 25.04 22.2 72 38 7.3 45.1
19:35 1019 30.09 848 25.04 21.9 71.4 38 7 44.5
19:40 1019 30.09 848 25.04 21.8 71.3 37 6.7 44.1
19:45 1019 30.09 848 25.04 21.8 71.3 37 6.5 43.7
19:50 1019 30.09 848 25.04 21.8 71.3 37 6.5 43.7
19:55 1019 30.09 848 25.04 21.9 71.3 37 6.6 43.9
20:00 1019 30.09 848 25.04 21.7 71.1 38 6.8 44.3
20:05 1019 30.09 848 25.04 21.4 70.6 38 6.8 44.3
20:10 1019 30.09 848 25.04 21.2 70.2 39 7 44.6
20:15 1019 30.09 848 25.04 21.1 69.9 39 6.8 44.2
20:20 1019 30.09 848 25.04 20.9 69.7 40 6.9 44.4
20:25 1019 30.09 848 25.04 20.8 69.4 42 7.4 45.4
20:30 1019 30.09 848 25.04 20.5 68.9 42 7.2 44.9
20:35 1019 30.09 848 25.04 20.4 68.7 42 7.3 45.2
20:40 1019 30.09 848 25.04 20.2 68.4 43 7.3 45.2
20:45 1019 30.09 848 25.04 20 68.1 43 7.1 44.8
20:50 1019 30.09 848 25.04 20 68.1 42 6.8 44.3
20:55 1019 30.09 848 25.04 19.9 67.9 43 7.1 44.7
21:00 1019 30.09 848 25.04 19.8 67.6 44 7.2 44.9
21:05 1019 30.09 848 25.04 19.5 67.1 43 6.8 44.2
21:10 1019 30.09 848 25.04 19.6 67.2 43 6.7 44.1
21:15 1019 30.09 848 25.04 19.5 67.1 44 7 44.6
21:20 1019 30.09 849 25.07 19.3 66.8 45 7.3 45.1
21:25 1019 30.09 849 25.07 19 66.2 46 7.1 44.8
21:30 1019 30.09 849 25.07 19 66.1 46 7.1 44.8
21:35 1019 30.09 849 25.07 18.8 65.9 46 7.2 44.9
21:40 1019 30.09 849 25.07 18.8 65.8 46 7.1 44.8
21:45 1019 30.09 849 25.07 18.8 65.8 45 6.8 44.3
21:50 1019 30.09 849 25.07 19 66.1 46 7.1 44.8
21:55 1019 30.09 849 25.07 18.8 65.9 47 7.4 45.3
22:00 1019 30.09 849 25.07 18.6 65.5 48 7.6 45.6
22:05 1019 30.09 849 25.07 18.6 65.4 48 7.5 45.6
22:10 1020 30.12 849 25.07 18.7 65.7 49 7.9 46.2
22:15 1020 30.12 849 25.07 18.5 65.3 51 8.4 47.1
22:20 1020 30.12 849 25.07 18.2 64.8 53 8.6 47.4
22:25 1020 30.12 849 25.07 18 64.5 55 8.9 48
22:30 1020 30.12 849 25.07 17.9 64.3 56 9.1 48.4
22:35 1020 30.12 849 25.07 17.8 64.1 57 9.3 48.7
22:40 1020 30.12 850 25.1 17.7 63.9 58 9.3 48.8
22:45 1021 30.15 850 25.1 17.6 63.7 58 9.4 48.9
22:50 1021 30.15 850 25.1 17.5 63.6 58 9.4 48.9
22:55 1021 30.15 850 25.1 17.4 63.4 59 9.3 48.8
23:00 1021 30.15 850 25.1 17.4 63.3 59 9.3 48.7
23:05 1020 30.12 850 25.1 17.4 63.3 59 9.5 49.1
23:10 1020 30.12 849 25.07 17.2 62.9 62 9.9 49.8
23:15 1019 30.09 848 25.04 16.7 62.1 66 10.5 50.8
23:20 1019 30.09 848 25.04 16.4 61.5 64 9.7 49.5
23:25 1019 30.09 848 25.04 16.4 61.5 66 10.1 50.2
23:30 1019 30.09 848 25.04 16.2 61.2 64 9.4 49
23:35 1019 30.09 848 25.04 16.5 61.8 61 9.1 48.4
23:40 1019 30.09 848 25.04 16.7 62 62 9.5 49
23:45 1019 30.09 848 25.04 16.5 61.8 60 8.9 47.9
23:50 1019 30.09 848 25.04 16.9 62.5 56 8.1 46.6
23:55 1019 30.09 848 25.04 17.2 63 55 8.2 46.8
24:00 1019 30.09 848 25.04 17.3 63.1 55 8.3 46.9